Terminal Aerodrome Forecast
Issued by NWS Sioux Falls, SD

Home | Current Version | Previous Version | Graphics & Text | Print | Product List | Glossary On
Versions: 1 2 3 4 5 6 7 8 9 10 11 12 13 14
000
FTUS43 KFSD 011120
TAFFSD
TAF
KFSD 011120Z 0112/0212 22003KT P6SM SKC
     FM011500 20007KT P6SM SCT120
     FM011800 20012KT P6SM SCT100
     FM012000 22012G18KT P6SM SCT050 PROB30 0122/0124 6SM -TSRA
      BKN040CB
     FM020100 19008KT P6SM SCT100
     FM021000 23006KT P6SM SKC=

USA.gov is the U.S. government's official web portal to all federal, state and local government web resources and services.